This is the latest recevied weather packets stored in our database for station/object Krauchnws. If no packets are shown the sender has not sent any weather packets the latest 10 day(s).
| Time | Temp. | Humidity | Pressure | Rain* | Wind** | Luminosity | Snow |
|---|---|---|---|---|---|---|---|
| 1777962731 | 11.67° C | 82% | 1007.5 hPa | 0 mm | - | - | - |
| 1777960932 | 10° C | 86% | 1007.7 hPa | 0 mm | - | - | - |
| 1777959131 | 8.89° C | 90% | 1007.6 hPa | 0 mm | - | - | - |
| 1777957331 | 7.78° C | 89% | 1007.5 hPa | 0 mm | - | - | - |
| 1777955531 | 7.22° C | 91% | 1007.6 hPa | 0 mm | - | - | - |
| 1777953731 | 7.22° C | 91% | 1008.1 hPa | 0 mm | - | - | - |
| 1777951931 | 7.22° C | 90% | 1007.9 hPa | 0 mm | - | - | - |
| 1777950133 | 7.78° C | 89% | 1008.2 hPa | 0 mm | - | - | - |
| 1777948331 | 8.33° C | 89% | 1008.4 hPa | 0 mm | - | - | - |
| 1777946531 | 8.89° C | 88% | 1008.6 hPa | 0 mm | - | - | - |
| 1777944731 | 9.44° C | 86% | 1008.6 hPa | 0 mm | - | - | - |
| 1777942931 | 8.89° C | 87% | 1009.2 hPa | 0 mm | - | - | - |
| 1777941129 | 10° C | 85% | 1009.5 hPa | 0 mm | - | - | - |
| 1777939330 | 11.11° C | 81% | 1009.7 hPa | 0 mm | - | - | - |
| 1777937529 | 11.67° C | 78% | 1009.9 hPa | 0 mm | - | - | - |
| 1777935730 | 12.78° C | 73% | 1010 hPa | 0 mm | - | - | - |
| 1777933935 | 13.33° C | 72% | 1010.2 hPa | 0 mm | - | - | - |
| 1777932129 | 13.89° C | 69% | 1010.2 hPa | 0 mm | - | - | - |
| 1777930329 | 14.44° C | 67% | 1010.3 hPa | 0 mm | - | - | - |
| 1777928529 | 15° C | 64% | 1010.4 hPa | 0 mm | - | - | - |
| 1777926729 | 15° C | 62% | 1010.3 hPa | 0 mm | - | - | - |
| 1777924929 | 15.56° C | 59% | 1010.1 hPa | 0 mm | - | - | - |
| 1777923129 | 16.11° C | 56% | 1010.1 hPa | 0 mm | - | - | - |
| 1777921329 | 16.67° C | 55% | 1010.2 hPa | 0 mm | - | - | - |
| 1777919529 | 17.22° C | 52% | 1010.9 hPa | 0 mm | - | - | - |
* Rain since midnight (hover to see other rain measurements)
** Current wind speed in m/s (hover to see current wind gust speed)